sensor_id;sensor_type;location;lat;lon;timestamp;temperature;humidity
53880;DHT22;39791;53.184;5.486;2022-11-18T00:00:48;10.20;99.90
53880;DHT22;39791;53.184;5.486;2022-11-18T00:03:14;10.20;99.90
53880;DHT22;39791;53.184;5.486;2022-11-18T00:05:39;10.10;99.90
53880;DHT22;39791;53.184;5.486;2022-11-18T00:08:05;10.00;99.90
53880;DHT22;39791;53.184;5.486;2022-11-18T00:10:31;10.00;99.90
53880;DHT22;39791;53.184;5.486;2022-11-18T00:12:56;9.90;99.90
53880;DHT22;39791;53.184;5.486;2022-11-18T00:15:40;9.80;99.90
53880;DHT22;39791;53.184;5.486;2022-11-18T00:18:06;9.80;99.90
53880;DHT22;39791;53.184;5.486;2022-11-18T00:20:33;9.90;99.90
53880;DHT22;39791;53.184;5.486;2022-11-18T00:22:59;9.70;99.90
53880;DHT22;39791;53.184;5.486;2022-11-18T00:25:25;9.80;99.90
53880;DHT22;39791;53.184;5.486;2022-11-18T00:27:50;10.40;99.90
53880;DHT22;39791;53.184;5.486;2022-11-18T00:30:16;9.80;99.90
53880;DHT22;39791;53.184;5.486;2022-11-18T00:32:42;9.80;99.90
53880;DHT22;39791;53.184;5.486;2022-11-18T00:35:07;9.80;99.90
53880;DHT22;39791;53.184;5.486;2022-11-18T00:37:33;9.80;99.90
53880;DHT22;39791;53.184;5.486;2022-11-18T00:39:59;9.80;99.90
53880;DHT22;39791;53.184;5.486;2022-11-18T00:42:24;9.70;99.90
53880;DHT22;39791;53.184;5.486;2022-11-18T00:45:08;9.70;99.90
53880;DHT22;39791;53.184;5.486;2022-11-18T00:47:34;9.80;99.90
53880;DHT22;39791;53.184;5.486;2022-11-18T00:50:00;9.80;99.90
53880;DHT22;39791;53.184;5.486;2022-11-18T00:52:25;9.70;99.90
53880;DHT22;39791;53.184;5.486;2022-11-18T00:54:51;9.70;99.90
53880;DHT22;39791;53.184;5.486;2022-11-18T00:57:16;9.90;99.90
53880;DHT22;39791;53.184;5.486;2022-11-18T00:59:42;9.80;99.90
53880;DHT22;39791;53.184;5.486;2022-11-18T01:02:07;9.70;99.90
53880;DHT22;39791;53.184;5.486;2022-11-18T01:04:33;9.90;99.90
53880;DHT22;39791;53.184;5.486;2022-11-18T01:06:58;9.90;99.90
53880;DHT22;39791;53.184;5.486;2022-11-18T01:09:24;9.80;99.90
53880;DHT22;39791;53.184;5.486;2022-11-18T01:11:49;9.90;99.90
53880;DHT22;39791;53.184;5.486;2022-11-18T01:14:33;10.00;99.90
53880;DHT22;39791;53.184;5.486;2022-11-18T01:16:59;9.90;99.90
53880;DHT22;39791;53.184;5.486;2022-11-18T01:19:25;10.10;99.90
53880;DHT22;39791;53.184;5.486;2022-11-18T01:21:50;10.00;99.90
53880;DHT22;39791;53.184;5.486;2022-11-18T01:24:16;10.00;99.90
53880;DHT22;39791;53.184;5.486;2022-11-18T01:26:42;9.90;99.90
53880;DHT22;39791;53.184;5.486;2022-11-18T01:29:07;9.90;99.90
53880;DHT22;39791;53.184;5.486;2022-11-18T01:31:33;10.10;99.90
53880;DHT22;39791;53.184;5.486;2022-11-18T01:33:58;9.90;99.90
53880;DHT22;39791;53.184;5.486;2022-11-18T01:36:26;10.00;99.90
53880;DHT22;39791;53.184;5.486;2022-11-18T01:38:53;10.00;99.90
53880;DHT22;39791;53.184;5.486;2022-11-18T01:41:21;9.90;99.90
53880;DHT22;39791;53.184;5.486;2022-11-18T01:44:02;10.00;99.90
53880;DHT22;39791;53.184;5.486;2022-11-18T01:46:30;9.90;99.90
53880;DHT22;39791;53.184;5.486;2022-11-18T01:49:00;10.10;99.90
53880;DHT22;39791;53.184;5.486;2022-11-18T01:51:33;10.00;99.90
53880;DHT22;39791;53.184;5.486;2022-11-18T01:54:07;10.00;99.90
53880;DHT22;39791;53.184;5.486;2022-11-18T01:56:41;10.10;99.90
53880;DHT22;39791;53.184;5.486;2022-11-18T01:59:14;10.20;99.90
53880;DHT22;39791;53.184;5.486;2022-11-18T02:01:42;10.00;99.90
53880;DHT22;39791;53.184;5.486;2022-11-18T02:04:08;10.10;99.90
53880;DHT22;39791;53.184;5.486;2022-11-18T02:06:35;10.10;99.90
53880;DHT22;39791;53.184;5.486;2022-11-18T02:09:02;9.90;99.90
53880;DHT22;39791;53.184;5.486;2022-11-18T02:11:27;9.80;99.90
53880;DHT22;39791;53.184;5.486;2022-11-18T02:14:13;9.80;99.90
53880;DHT22;39791;53.184;5.486;2022-11-18T02:30:43;9.60;99.90
53880;DHT22;39791;53.184;5.486;2022-11-18T02:33:23;9.50;99.90
53880;DHT22;39791;53.184;5.486;2022-11-18T02:36:12;9.50;99.90
53880;DHT22;39791;53.184;5.486;2022-11-18T02:38:47;9.40;99.90
53880;DHT22;39791;53.184;5.486;2022-11-18T02:41:19;9.40;99.90
53880;DHT22;39791;53.184;5.486;2022-11-18T02:43:46;10.20;99.90
53880;DHT22;39791;53.184;5.486;2022-11-18T02:46:20;9.30;99.90
53880;DHT22;39791;53.184;5.486;2022-11-18T02:48:50;9.40;99.90
53880;DHT22;39791;53.184;5.486;2022-11-18T02:51:20;9.40;99.90
53880;DHT22;39791;53.184;5.486;2022-11-18T02:53:48;9.50;99.90
53880;DHT22;39791;53.184;5.486;2022-11-18T02:56:16;9.50;99.90
53880;DHT22;39791;53.184;5.486;2022-11-18T02:58:42;9.50;99.90
53880;DHT22;39791;53.184;5.486;2022-11-18T03:01:24;9.40;99.90
53880;DHT22;39791;53.184;5.486;2022-11-18T03:03:51;9.40;99.90
53880;DHT22;39791;53.184;5.486;2022-11-18T03:06:31;9.50;99.90
53880;DHT22;39791;53.184;5.486;2022-11-18T03:11:32;9.40;99.90
53880;DHT22;39791;53.184;5.486;2022-11-18T03:16:55;9.50;99.90
53880;DHT22;39791;53.184;5.486;2022-11-18T03:19:31;9.50;99.90
53880;DHT22;39791;53.184;5.486;2022-11-18T03:22:16;9.60;99.90
53880;DHT22;39791;53.184;5.486;2022-11-18T03:24:50;9.80;99.90
53880;DHT22;39791;53.184;5.486;2022-11-18T03:27:30;9.70;99.90
53880;DHT22;39791;53.184;5.486;2022-11-18T03:30:02;9.80;99.90
53880;DHT22;39791;53.184;5.486;2022-11-18T03:32:32;10.00;99.90
53880;DHT22;39791;53.184;5.486;2022-11-18T03:35:10;10.00;99.90
53880;DHT22;39791;53.184;5.486;2022-11-18T03:37:38;9.80;99.90
53880;DHT22;39791;53.184;5.486;2022-11-18T03:40:17;9.80;99.90
53880;DHT22;39791;53.184;5.486;2022-11-18T03:42:48;10.10;99.90
53880;DHT22;39791;53.184;5.486;2022-11-18T03:45:17;10.10;99.90
53880;DHT22;39791;53.184;5.486;2022-11-18T03:47:52;9.80;99.90
53880;DHT22;39791;53.184;5.486;2022-11-18T03:50:25;9.90;99.90
53880;DHT22;39791;53.184;5.486;2022-11-18T03:52:52;10.20;99.90
53880;DHT22;39791;53.184;5.486;2022-11-18T03:55:23;10.20;99.90
53880;DHT22;39791;53.184;5.486;2022-11-18T03:58:25;10.10;99.90
53880;DHT22;39791;53.184;5.486;2022-11-18T04:00:46;10.10;99.90
53880;DHT22;39791;53.184;5.486;2022-11-18T04:03:12;10.10;99.90
53880;DHT22;39791;53.184;5.486;2022-11-18T04:05:40;10.10;99.90
53880;DHT22;39791;53.184;5.486;2022-11-18T04:08:12;10.30;99.90
53880;DHT22;39791;53.184;5.486;2022-11-18T04:10:49;10.30;99.90
53880;DHT22;39791;53.184;5.486;2022-11-18T04:13:32;10.50;99.90
53880;DHT22;39791;53.184;5.486;2022-11-18T04:15:59;10.30;99.90
53880;DHT22;39791;53.184;5.486;2022-11-18T04:18:25;10.50;99.90
53880;DHT22;39791;53.184;5.486;2022-11-18T04:20:50;10.20;99.90
53880;DHT22;39791;53.184;5.486;2022-11-18T04:23:16;10.20;99.90
53880;DHT22;39791;53.184;5.486;2022-11-18T04:25:41;10.30;99.90
53880;DHT22;39791;53.184;5.486;2022-11-18T04:28:07;10.60;99.90
53880;DHT22;39791;53.184;5.486;2022-11-18T04:30:34;10.60;99.90
53880;DHT22;39791;53.184;5.486;2022-11-18T04:33:00;10.50;99.90
53880;DHT22;39791;53.184;5.486;2022-11-18T04:35:25;10.50;99.90
53880;DHT22;39791;53.184;5.486;2022-11-18T04:37:51;10.50;99.90
53880;DHT22;39791;53.184;5.486;2022-11-18T04:40:17;10.40;99.90
53880;DHT22;39791;53.184;5.486;2022-11-18T04:42:42;10.40;99.90
53880;DHT22;39791;53.184;5.486;2022-11-18T04:45:09;10.60;99.90
53880;DHT22;39791;53.184;5.486;2022-11-18T04:47:34;10.50;99.90
53880;DHT22;39791;53.184;5.486;2022-11-18T04:50:00;10.60;99.90
53880;DHT22;39791;53.184;5.486;2022-11-18T04:52:25;10.40;99.90
53880;DHT22;39791;53.184;5.486;2022-11-18T04:54:51;10.40;99.90
53880;DHT22;39791;53.184;5.486;2022-11-18T04:57:17;10.40;99.90
53880;DHT22;39791;53.184;5.486;2022-11-18T04:59:42;10.50;99.90
53880;DHT22;39791;53.184;5.486;2022-11-18T05:02:08;10.70;99.90
53880;DHT22;39791;53.184;5.486;2022-11-18T05:04:33;10.50;99.90
53880;DHT22;39791;53.184;5.486;2022-11-18T05:07:01;10.60;99.90
53880;DHT22;39791;53.184;5.486;2022-11-18T05:09:27;10.60;99.90
53880;DHT22;39791;53.184;5.486;2022-11-18T05:11:53;10.70;99.90
53880;DHT22;39791;53.184;5.486;2022-11-18T05:14:37;10.60;99.90
53880;DHT22;39791;53.184;5.486;2022-11-18T05:17:05;11.20;99.90
53880;DHT22;39791;53.184;5.486;2022-11-18T05:19:30;10.60;99.90
53880;DHT22;39791;53.184;5.486;2022-11-18T05:21:56;10.70;99.90
53880;DHT22;39791;53.184;5.486;2022-11-18T05:24:22;10.40;99.90
53880;DHT22;39791;53.184;5.486;2022-11-18T05:26:49;10.40;99.90
53880;DHT22;39791;53.184;5.486;2022-11-18T05:29:16;10.40;99.90
53880;DHT22;39791;53.184;5.486;2022-11-18T05:31:43;10.70;99.90
53880;DHT22;39791;53.184;5.486;2022-11-18T05:34:09;10.40;99.90
53880;DHT22;39791;53.184;5.486;2022-11-18T05:36:34;10.60;99.90
53880;DHT22;39791;53.184;5.486;2022-11-18T05:39:00;10.40;99.90
53880;DHT22;39791;53.184;5.486;2022-11-18T05:41:25;10.60;99.90
53880;DHT22;39791;53.184;5.486;2022-11-18T05:44:10;10.60;99.90
53880;DHT22;39791;53.184;5.486;2022-11-18T05:46:35;10.30;99.90
53880;DHT22;39791;53.184;5.486;2022-11-18T05:49:01;10.40;99.90
53880;DHT22;39791;53.184;5.486;2022-11-18T05:51:27;10.40;99.90
53880;DHT22;39791;53.184;5.486;2022-11-18T05:53:53;10.60;99.90
53880;DHT22;39791;53.184;5.486;2022-11-18T05:56:24;10.30;99.90
53880;DHT22;39791;53.184;5.486;2022-11-18T05:58:51;10.40;99.90
53880;DHT22;39791;53.184;5.486;2022-11-18T06:01:24;10.60;99.90
53880;DHT22;39791;53.184;5.486;2022-11-18T06:03:51;10.60;99.90
53880;DHT22;39791;53.184;5.486;2022-11-18T06:06:19;10.30;99.90
53880;DHT22;39791;53.184;5.486;2022-11-18T06:08:52;10.30;99.90
53880;DHT22;39791;53.184;5.486;2022-11-18T06:11:20;10.30;99.90
53880;DHT22;39791;53.184;5.486;2022-11-18T06:14:02;10.40;99.90
53880;DHT22;39791;53.184;5.486;2022-11-18T06:16:29;10.60;99.90
53880;DHT22;39791;53.184;5.486;2022-11-18T06:18:56;10.40;99.90
53880;DHT22;39791;53.184;5.486;2022-11-18T06:21:22;10.40;99.90
53880;DHT22;39791;53.184;5.486;2022-11-18T06:23:48;10.30;99.90
53880;DHT22;39791;53.184;5.486;2022-11-18T06:26:15;10.60;99.90
53880;DHT22;39791;53.184;5.486;2022-11-18T06:28:43;10.60;99.90
53880;DHT22;39791;53.184;5.486;2022-11-18T06:31:09;10.60;99.90
53880;DHT22;39791;53.184;5.486;2022-11-18T06:33:35;10.30;99.90
53880;DHT22;39791;53.184;5.486;2022-11-18T06:36:00;10.40;99.90
53880;DHT22;39791;53.184;5.486;2022-11-18T06:38:26;10.30;99.90
53880;DHT22;39791;53.184;5.486;2022-11-18T06:40:51;10.60;99.90
53880;DHT22;39791;53.184;5.486;2022-11-18T06:43:17;10.40;99.90
53880;DHT22;39791;53.184;5.486;2022-11-18T06:46:11;10.30;99.90
53880;DHT22;39791;53.184;5.486;2022-11-18T06:48:57;10.50;99.90
53880;DHT22;39791;53.184;5.486;2022-11-18T06:51:23;10.10;99.90
53880;DHT22;39791;53.184;5.486;2022-11-18T06:53:49;10.30;99.90
53880;DHT22;39791;53.184;5.486;2022-11-18T06:56:17;10.10;99.90
53880;DHT22;39791;53.184;5.486;2022-11-18T06:58:43;10.20;99.90
53880;DHT22;39791;53.184;5.486;2022-11-18T07:03:42;10.10;99.90
53880;DHT22;39791;53.184;5.486;2022-11-18T07:06:08;10.10;99.90
53880;DHT22;39791;53.184;5.486;2022-11-18T07:08:35;10.40;99.90
53880;DHT22;39791;53.184;5.486;2022-11-18T07:11:02;10.20;99.90
53880;DHT22;39791;53.184;5.486;2022-11-18T07:13:30;10.10;99.90
53880;DHT22;39791;53.184;5.486;2022-11-18T07:16:07;10.40;99.90
53880;DHT22;39791;53.184;5.486;2022-11-18T07:18:34;10.40;99.90
53880;DHT22;39791;53.184;5.486;2022-11-18T07:21:04;10.40;99.90
53880;DHT22;39791;53.184;5.486;2022-11-18T07:23:31;10.10;99.90
53880;DHT22;39791;53.184;5.486;2022-11-18T07:25:57;10.40;99.90
53880;DHT22;39791;53.184;5.486;2022-11-18T07:28:23;10.20;99.90
53880;DHT22;39791;53.184;5.486;2022-11-18T07:30:49;10.40;99.90
53880;DHT22;39791;53.184;5.486;2022-11-18T07:33:14;10.50;99.90
53880;DHT22;39791;53.184;5.486;2022-11-18T07:35:40;10.30;99.90
53880;DHT22;39791;53.184;5.486;2022-11-18T07:38:06;10.40;99.90
53880;DHT22;39791;53.184;5.486;2022-11-18T07:40:31;10.50;99.90
53880;DHT22;39791;53.184;5.486;2022-11-18T07:42:57;10.50;99.90
53880;DHT22;39791;53.184;5.486;2022-11-18T07:45:23;10.30;99.90
53880;DHT22;39791;53.184;5.486;2022-11-18T07:47:48;10.50;99.90
53880;DHT22;39791;53.184;5.486;2022-11-18T07:50:18;10.00;99.90
53880;DHT22;39791;53.184;5.486;2022-11-18T07:52:43;10.20;99.90
53880;DHT22;39791;53.184;5.486;2022-11-18T07:55:09;10.10;99.90
53880;DHT22;39791;53.184;5.486;2022-11-18T07:57:35;10.30;99.90
53880;DHT22;39791;53.184;5.486;2022-11-18T08:00:01;10.20;99.90
53880;DHT22;39791;53.184;5.486;2022-11-18T08:02:26;10.50;99.90
53880;DHT22;39791;53.184;5.486;2022-11-18T08:04:52;10.20;99.90
53880;DHT22;39791;53.184;5.486;2022-11-18T08:07:17;10.20;99.90
53880;DHT22;39791;53.184;5.486;2022-11-18T08:09:43;10.50;99.90
53880;DHT22;39791;53.184;5.486;2022-11-18T08:12:08;10.20;99.90
53880;DHT22;39791;53.184;5.486;2022-11-18T08:14:34;10.20;99.90
53880;DHT22;39791;53.184;5.486;2022-11-18T08:16:59;10.40;99.90
53880;DHT22;39791;53.184;5.486;2022-11-18T08:19:25;10.20;99.90
53880;DHT22;39791;53.184;5.486;2022-11-18T08:21:51;10.10;99.90
53880;DHT22;39791;53.184;5.486;2022-11-18T08:24:16;10.20;99.90
53880;DHT22;39791;53.184;5.486;2022-11-18T08:26:42;10.40;99.90
53880;DHT22;39791;53.184;5.486;2022-11-18T08:29:07;10.20;99.90
53880;DHT22;39791;53.184;5.486;2022-11-18T08:31:33;10.50;99.90
53880;DHT22;39791;53.184;5.486;2022-11-18T08:34:01;10.50;99.90
53880;DHT22;39791;53.184;5.486;2022-11-18T08:36:28;11.20;99.90
53880;DHT22;39791;53.184;5.486;2022-11-18T08:38:55;10.40;99.90
53880;DHT22;39791;53.184;5.486;2022-11-18T08:41:39;10.20;99.90
53880;DHT22;39791;53.184;5.486;2022-11-18T08:44:09;10.40;99.90
53880;DHT22;39791;53.184;5.486;2022-11-18T08:46:39;10.20;99.90
53880;DHT22;39791;53.184;5.486;2022-11-18T08:49:05;10.10;99.90
53880;DHT22;39791;53.184;5.486;2022-11-18T08:51:30;10.20;99.90
53880;DHT22;39791;53.184;5.486;2022-11-18T08:53:56;10.20;99.90
53880;DHT22;39791;53.184;5.486;2022-11-18T08:56:23;10.30;99.90
53880;DHT22;39791;53.184;5.486;2022-11-18T08:58:49;10.30;99.90
53880;DHT22;39791;53.184;5.486;2022-11-18T09:01:15;10.30;99.90
53880;DHT22;39791;53.184;5.486;2022-11-18T09:03:41;10.10;99.90
53880;DHT22;39791;53.184;5.486;2022-11-18T09:06:13;10.20;99.90
53880;DHT22;39791;53.184;5.486;2022-11-18T09:08:39;10.10;99.90
53880;DHT22;39791;53.184;5.486;2022-11-18T09:11:11;10.40;99.90
53880;DHT22;39791;53.184;5.486;2022-11-18T09:13:37;10.10;99.90
53880;DHT22;39791;53.184;5.486;2022-11-18T09:16:03;10.10;99.90
53880;DHT22;39791;53.184;5.486;2022-11-18T09:18:31;10.30;99.90
53880;DHT22;39791;53.184;5.486;2022-11-18T09:20:59;10.30;99.90
53880;DHT22;39791;53.184;5.486;2022-11-18T09:23:25;10.20;99.90
53880;DHT22;39791;53.184;5.486;2022-11-18T09:25:58;10.30;99.90
53880;DHT22;39791;53.184;5.486;2022-11-18T09:28:24;10.30;99.90
53880;DHT22;39791;53.184;5.486;2022-11-18T09:30:49;10.00;99.90
53880;DHT22;39791;53.184;5.486;2022-11-18T09:33:15;10.20;99.90
53880;DHT22;39791;53.184;5.486;2022-11-18T09:35:42;9.90;99.90
53880;DHT22;39791;53.184;5.486;2022-11-18T09:38:08;10.00;99.90
53880;DHT22;39791;53.184;5.486;2022-11-18T09:40:54;10.00;99.90
53880;DHT22;39791;53.184;5.486;2022-11-18T09:43:34;10.20;99.90
53880;DHT22;39791;53.184;5.486;2022-11-18T09:46:32;10.10;99.90
53880;DHT22;39791;53.184;5.486;2022-11-18T09:49:06;10.10;99.90
53880;DHT22;39791;53.184;5.486;2022-11-18T09:51:41;9.90;99.90
53880;DHT22;39791;53.184;5.486;2022-11-18T09:54:56;10.00;99.90
53880;DHT22;39791;53.184;5.486;2022-11-18T09:56:57;9.90;99.90
53880;DHT22;39791;53.184;5.486;2022-11-18T09:59:25;9.80;99.90
53880;DHT22;39791;53.184;5.486;2022-11-18T10:01:55;9.80;99.90
53880;DHT22;39791;53.184;5.486;2022-11-18T10:04:21;9.90;99.90
53880;DHT22;39791;53.184;5.486;2022-11-18T10:06:48;10.10;99.90
53880;DHT22;39791;53.184;5.486;2022-11-18T10:09:30;10.00;99.90
53880;DHT22;39791;53.184;5.486;2022-11-18T10:12:27;10.10;99.90
53880;DHT22;39791;53.184;5.486;2022-11-18T10:15:33;9.80;99.90
53880;DHT22;39791;53.184;5.486;2022-11-18T10:23:28;9.80;99.90
53880;DHT22;39791;53.184;5.486;2022-11-18T10:25:54;9.80;99.90
53880;DHT22;39791;53.184;5.486;2022-11-18T10:28:26;10.10;99.90
53880;DHT22;39791;53.184;5.486;2022-11-18T10:31:04;9.90;99.90
53880;DHT22;39791;53.184;5.486;2022-11-18T10:33:30;10.10;99.90
53880;DHT22;39791;53.184;5.486;2022-11-18T10:36:24;10.10;99.90
53880;DHT22;39791;53.184;5.486;2022-11-18T10:39:14;9.90;99.90
53880;DHT22;39791;53.184;5.486;2022-11-18T10:41:49;10.10;99.90
53880;DHT22;39791;53.184;5.486;2022-11-18T10:44:38;10.20;99.90
53880;DHT22;39791;53.184;5.486;2022-11-18T10:47:28;10.10;99.90
53880;DHT22;39791;53.184;5.486;2022-11-18T10:49:59;10.00;99.90
53880;DHT22;39791;53.184;5.486;2022-11-18T10:52:26;10.00;99.90
53880;DHT22;39791;53.184;5.486;2022-11-18T10:55:22;10.20;99.90
53880;DHT22;39791;53.184;5.486;2022-11-18T10:57:51;10.00;99.90
53880;DHT22;39791;53.184;5.486;2022-11-18T11:00:43;10.30;99.90
53880;DHT22;39791;53.184;5.486;2022-11-18T11:08:54;10.00;99.90
53880;DHT22;39791;53.184;5.486;2022-11-18T11:11:35;10.10;99.90
53880;DHT22;39791;53.184;5.486;2022-11-18T11:19:51;10.00;99.90
53880;DHT22;39791;53.184;5.486;2022-11-18T11:22:19;9.80;99.90
53880;DHT22;39791;53.184;5.486;2022-11-18T11:24:44;9.90;99.90
53880;DHT22;39791;53.184;5.486;2022-11-18T11:27:30;10.00;99.90
53880;DHT22;39791;53.184;5.486;2022-11-18T11:30:33;10.10;99.90
53880;DHT22;39791;53.184;5.486;2022-11-18T11:33:25;10.20;99.90
53880;DHT22;39791;53.184;5.486;2022-11-18T11:41:23;10.00;99.90
53880;DHT22;39791;53.184;5.486;2022-11-18T11:46:44;10.00;99.90
53880;DHT22;39791;53.184;5.486;2022-11-18T11:50:00;10.20;99.90
53880;DHT22;39791;53.184;5.486;2022-11-18T11:52:57;10.20;99.90
53880;DHT22;39791;53.184;5.486;2022-11-18T12:04:45;9.80;99.90
53880;DHT22;39791;53.184;5.486;2022-11-18T12:07:18;10.00;99.90
53880;DHT22;39791;53.184;5.486;2022-11-18T12:10:01;9.90;99.90
53880;DHT22;39791;53.184;5.486;2022-11-18T12:15:42;10.10;99.90
53880;DHT22;39791;53.184;5.486;2022-11-18T12:18:25;9.90;99.90
53880;DHT22;39791;53.184;5.486;2022-11-18T12:20:53;9.80;99.90
53880;DHT22;39791;53.184;5.486;2022-11-18T12:23:27;9.90;99.90
53880;DHT22;39791;53.184;5.486;2022-11-18T12:26:01;9.80;99.90
53880;DHT22;39791;53.184;5.486;2022-11-18T12:34:01;9.70;99.90
53880;DHT22;39791;53.184;5.486;2022-11-18T12:38:54;9.50;99.90
53880;DHT22;39791;53.184;5.486;2022-11-18T12:44:26;9.30;99.90
53880;DHT22;39791;53.184;5.486;2022-11-18T12:46:56;9.30;99.90
53880;DHT22;39791;53.184;5.486;2022-11-18T12:54:52;9.30;99.90
53880;DHT22;39791;53.184;5.486;2022-11-18T12:57:23;9.50;99.90
53880;DHT22;39791;53.184;5.486;2022-11-18T12:59:49;9.40;99.90
53880;DHT22;39791;53.184;5.486;2022-11-18T13:04:41;9.50;99.90
53880;DHT22;39791;53.184;5.486;2022-11-18T13:07:10;9.30;99.90
53880;DHT22;39791;53.184;5.486;2022-11-18T13:09:56;9.20;99.90
53880;DHT22;39791;53.184;5.486;2022-11-18T13:12:26;9.20;99.90
53880;DHT22;39791;53.184;5.486;2022-11-18T13:14:54;9.40;99.90
53880;DHT22;39791;53.184;5.486;2022-11-18T13:17:40;9.30;99.90
53880;DHT22;39791;53.184;5.486;2022-11-18T13:25:53;9.20;99.90
53880;DHT22;39791;53.184;5.486;2022-11-18T13:30:55;9.30;99.90
53880;DHT22;39791;53.184;5.486;2022-11-18T13:33:23;9.20;99.90
53880;DHT22;39791;53.184;5.486;2022-11-18T13:35:48;9.10;99.90
53880;DHT22;39791;53.184;5.486;2022-11-18T13:38:23;9.10;99.90
53880;DHT22;39791;53.184;5.486;2022-11-18T13:40:50;9.00;99.90
53880;DHT22;39791;53.184;5.486;2022-11-18T13:43:39;8.90;99.90
53880;DHT22;39791;53.184;5.486;2022-11-18T13:46:15;8.90;99.90
53880;DHT22;39791;53.184;5.486;2022-11-18T13:48:55;9.20;99.90
53880;DHT22;39791;53.184;5.486;2022-11-18T13:51:23;9.10;99.90
53880;DHT22;39791;53.184;5.486;2022-11-18T13:53:49;8.90;99.90
53880;DHT22;39791;53.184;5.486;2022-11-18T13:56:19;9.00;99.90
53880;DHT22;39791;53.184;5.486;2022-11-18T14:01:27;9.00;99.90
53880;DHT22;39791;53.184;5.486;2022-11-18T14:04:15;8.90;99.90
53880;DHT22;39791;53.184;5.486;2022-11-18T14:06:42;8.70;99.90
53880;DHT22;39791;53.184;5.486;2022-11-18T14:09:28;8.90;99.90
53880;DHT22;39791;53.184;5.486;2022-11-18T14:17:04;8.50;99.90
53880;DHT22;39791;53.184;5.486;2022-11-18T14:19:38;8.70;99.90
53880;DHT22;39791;53.184;5.486;2022-11-18T14:22:05;8.50;99.90
53880;DHT22;39791;53.184;5.486;2022-11-18T14:24:35;8.70;99.90
53880;DHT22;39791;53.184;5.486;2022-11-18T14:27:38;8.80;99.90
53880;DHT22;39791;53.184;5.486;2022-11-18T14:35:32;8.60;99.90
53880;DHT22;39791;53.184;5.486;2022-11-18T14:37:58;8.50;99.90
53880;DHT22;39791;53.184;5.486;2022-11-18T14:40:23;8.60;99.90
53880;DHT22;39791;53.184;5.486;2022-11-18T14:42:49;8.60;99.90
53880;DHT22;39791;53.184;5.486;2022-11-18T14:45:14;8.40;99.90
53880;DHT22;39791;53.184;5.486;2022-11-18T14:47:40;8.40;99.90
53880;DHT22;39791;53.184;5.486;2022-11-18T14:50:13;8.40;99.90
53880;DHT22;39791;53.184;5.486;2022-11-18T14:52:38;8.30;99.90
53880;DHT22;39791;53.184;5.486;2022-11-18T14:55:04;8.20;99.90
53880;DHT22;39791;53.184;5.486;2022-11-18T14:57:31;8.20;99.90
53880;DHT22;39791;53.184;5.486;2022-11-18T14:59:57;8.10;99.90
53880;DHT22;39791;53.184;5.486;2022-11-18T15:02:22;8.10;99.90
53880;DHT22;39791;53.184;5.486;2022-11-18T15:04:48;8.20;99.90
53880;DHT22;39791;53.184;5.486;2022-11-18T15:07:15;8.20;99.90
53880;DHT22;39791;53.184;5.486;2022-11-18T15:09:41;8.30;99.90
53880;DHT22;39791;53.184;5.486;2022-11-18T15:12:07;8.20;99.90
53880;DHT22;39791;53.184;5.486;2022-11-18T15:14:33;8.20;99.90
53880;DHT22;39791;53.184;5.486;2022-11-18T15:17:02;8.30;99.90
53880;DHT22;39791;53.184;5.486;2022-11-18T15:19:28;8.10;99.90
53880;DHT22;39791;53.184;5.486;2022-11-18T15:21:54;8.20;99.90
53880;DHT22;39791;53.184;5.486;2022-11-18T15:24:19;8.20;99.90
53880;DHT22;39791;53.184;5.486;2022-11-18T15:26:46;8.00;99.90
53880;DHT22;39791;53.184;5.486;2022-11-18T15:29:20;7.90;99.90
53880;DHT22;39791;53.184;5.486;2022-11-18T15:31:46;7.90;99.90
53880;DHT22;39791;53.184;5.486;2022-11-18T15:34:12;8.00;99.90
53880;DHT22;39791;53.184;5.486;2022-11-18T15:36:37;7.70;99.90
53880;DHT22;39791;53.184;5.486;2022-11-18T15:39:03;7.50;99.90
53880;DHT22;39791;53.184;5.486;2022-11-18T15:41:30;7.80;99.90
53880;DHT22;39791;53.184;5.486;2022-11-18T15:43:57;7.90;99.90
53880;DHT22;39791;53.184;5.486;2022-11-18T15:46:24;7.90;99.90
53880;DHT22;39791;53.184;5.486;2022-11-18T15:48:52;7.60;99.90
53880;DHT22;39791;53.184;5.486;2022-11-18T15:51:18;7.60;99.90
53880;DHT22;39791;53.184;5.486;2022-11-18T15:53:43;7.60;99.90
53880;DHT22;39791;53.184;5.486;2022-11-18T15:58:59;7.70;99.90
53880;DHT22;39791;53.184;5.486;2022-11-18T16:01:30;7.50;99.90
53880;DHT22;39791;53.184;5.486;2022-11-18T16:03:55;7.40;99.90
53880;DHT22;39791;53.184;5.486;2022-11-18T16:06:21;7.50;99.90
53880;DHT22;39791;53.184;5.486;2022-11-18T16:08:47;7.30;99.90
53880;DHT22;39791;53.184;5.486;2022-11-18T16:11:14;7.50;99.90
53880;DHT22;39791;53.184;5.486;2022-11-18T16:14:09;7.30;99.90
53880;DHT22;39791;53.184;5.486;2022-11-18T16:16:37;7.50;99.90
53880;DHT22;39791;53.184;5.486;2022-11-18T16:19:07;7.60;99.90
53880;DHT22;39791;53.184;5.486;2022-11-18T16:21:35;7.50;99.90
53880;DHT22;39791;53.184;5.486;2022-11-18T16:24:03;7.30;99.90
53880;DHT22;39791;53.184;5.486;2022-11-18T16:26:29;7.30;99.90
53880;DHT22;39791;53.184;5.486;2022-11-18T16:28:57;7.20;99.90
53880;DHT22;39791;53.184;5.486;2022-11-18T16:31:24;7.20;99.90
53880;DHT22;39791;53.184;5.486;2022-11-18T16:34:13;7.10;99.90
53880;DHT22;39791;53.184;5.486;2022-11-18T16:36:42;6.90;99.90
53880;DHT22;39791;53.184;5.486;2022-11-18T16:41:34;6.80;99.90
53880;DHT22;39791;53.184;5.486;2022-11-18T16:44:03;6.90;99.90
53880;DHT22;39791;53.184;5.486;2022-11-18T16:46:31;7.00;99.90
53880;DHT22;39791;53.184;5.486;2022-11-18T16:48:57;7.00;99.90
53880;DHT22;39791;53.184;5.486;2022-11-18T16:51:24;7.00;99.90
53880;DHT22;39791;53.184;5.486;2022-11-18T16:53:51;7.00;99.90
53880;DHT22;39791;53.184;5.486;2022-11-18T16:56:19;7.00;99.90
53880;DHT22;39791;53.184;5.486;2022-11-18T16:58:45;7.00;99.90
53880;DHT22;39791;53.184;5.486;2022-11-18T17:01:11;6.90;99.90
53880;DHT22;39791;53.184;5.486;2022-11-18T17:03:37;7.00;99.90
53880;DHT22;39791;53.184;5.486;2022-11-18T17:06:03;6.80;99.90
53880;DHT22;39791;53.184;5.486;2022-11-18T17:08:32;6.80;99.90
53880;DHT22;39791;53.184;5.486;2022-11-18T17:11:03;6.80;99.90
53880;DHT22;39791;53.184;5.486;2022-11-18T17:13:29;6.90;99.90
53880;DHT22;39791;53.184;5.486;2022-11-18T17:15:54;6.80;99.90
53880;DHT22;39791;53.184;5.486;2022-11-18T17:18:20;6.90;99.90
53880;DHT22;39791;53.184;5.486;2022-11-18T17:20:45;6.80;99.90
53880;DHT22;39791;53.184;5.486;2022-11-18T17:23:11;6.80;99.90
53880;DHT22;39791;53.184;5.486;2022-11-18T17:25:36;6.80;99.90
53880;DHT22;39791;53.184;5.486;2022-11-18T17:28:04;6.70;99.90
53880;DHT22;39791;53.184;5.486;2022-11-18T17:30:29;6.50;99.90
53880;DHT22;39791;53.184;5.486;2022-11-18T17:32:55;6.50;99.90
53880;DHT22;39791;53.184;5.486;2022-11-18T17:35:21;6.70;99.90
53880;DHT22;39791;53.184;5.486;2022-11-18T17:37:46;6.60;99.90
53880;DHT22;39791;53.184;5.486;2022-11-18T17:40:12;6.70;99.90